createdAt,value
2018-02-06T00:01:04.528Z,79.30
2018-02-06T00:03:32.020Z,79.30
2018-02-06T00:05:59.552Z,79.30
2018-02-06T00:08:27.440Z,79.20
2018-02-06T00:10:55.324Z,79.40
2018-02-06T00:13:23.227Z,79.50
2018-02-06T00:15:50.716Z,79.50
2018-02-06T00:18:18.215Z,79.60
2018-02-06T00:20:45.790Z,79.60
2018-02-06T00:23:13.286Z,79.50
2018-02-06T00:25:41.251Z,79.70
2018-02-06T00:28:08.828Z,79.70
2018-02-06T00:30:36.708Z,79.60
2018-02-06T00:33:04.203Z,79.70
2018-02-06T00:35:31.688Z,79.80
2018-02-06T00:37:59.195Z,79.60
2018-02-06T00:40:26.674Z,79.50
2018-02-06T00:42:54.176Z,79.90
2018-02-06T00:45:22.057Z,79.90
2018-02-06T00:47:49.964Z,79.90
2018-02-06T00:50:17.454Z,79.90
2018-02-06T00:52:44.959Z,79.70
2018-02-06T00:55:12.848Z,79.70
2018-02-06T00:57:40.752Z,79.90
2018-02-06T01:00:08.244Z,79.90
2018-02-06T01:02:35.744Z,79.90
2018-02-06T01:05:03.236Z,80.10
2018-02-06T01:07:30.748Z,80.10
2018-02-06T01:09:58.235Z,80.20
2018-02-06T01:12:25.842Z,80.20
2018-02-06T01:14:53.412Z,80.10
2018-02-06T01:17:20.920Z,80.10
2018-02-06T01:19:48.416Z,80.00
2018-02-06T01:22:15.917Z,79.90
2018-02-06T01:24:43.412Z,80.10
2018-02-06T01:27:11.371Z,80.10
2018-02-06T01:29:38.948Z,80.10
2018-02-06T01:32:06.460Z,79.90
2018-02-06T01:34:33.996Z,79.90
2018-02-06T01:37:01.876Z,80.00
2018-02-06T01:39:29.366Z,80.00
2018-02-06T01:41:56.856Z,80.10
2018-02-06T01:44:24.359Z,80.10
2018-02-06T01:46:51.848Z,80.10
2018-02-06T01:49:19.424Z,79.90
2018-02-06T01:51:46.992Z,80.10
2018-02-06T01:54:14.489Z,80.00
2018-02-06T01:56:42.452Z,80.10
2018-02-06T01:59:09.951Z,80.10
2018-02-06T02:01:37.491Z,80.10
2018-02-06T02:04:04.964Z,80.20
2018-02-06T02:06:32.852Z,80.00
2018-02-06T02:09:00.767Z,79.90
2018-02-06T02:11:28.242Z,79.90
2018-02-06T02:13:55.764Z,79.90
2018-02-06T02:16:23.257Z,79.70
2018-02-06T02:18:51.143Z,79.50
2018-02-06T02:21:18.628Z,79.50
2018-02-06T02:23:46.136Z,79.60
2018-02-06T02:26:13.617Z,79.50
2018-02-06T02:28:41.124Z,79.50
2018-02-06T02:31:08.615Z,79.50
2018-02-06T02:33:36.140Z,79.40
2018-02-06T02:36:03.706Z,79.40
2018-02-06T02:38:31.211Z,79.20
2018-02-06T02:40:58.850Z,79.40
2018-02-06T04:39:02.675Z,78.20
2018-02-06T04:41:30.184Z,78.10
2018-02-06T04:43:57.675Z,78.20
2018-02-06T04:46:25.180Z,78.10
2018-02-06T04:48:52.672Z,78.10
2018-02-06T04:51:20.175Z,78.10
2018-02-06T04:53:47.663Z,78.20
2018-02-06T04:56:15.560Z,78.60
2018-02-06T04:58:43.448Z,78.50
2018-02-06T05:01:10.956Z,78.50
2018-02-06T05:03:38.434Z,78.50
2018-02-06T05:06:06.040Z,78.60
2018-02-06T05:08:33.937Z,78.70
2018-02-06T05:11:01.484Z,78.70
2018-02-06T05:13:29.001Z,78.90
2018-02-06T05:15:56.497Z,78.80
2018-02-06T05:18:23.983Z,78.80
2018-02-06T05:20:51.493Z,79.00
2018-02-06T05:23:19.035Z,78.90
2018-02-06T05:25:46.536Z,78.80
2018-02-06T05:28:14.024Z,78.80
2018-02-06T05:30:41.533Z,78.60
2018-02-06T05:33:09.019Z,78.90
2018-02-06T05:35:36.524Z,78.90
2018-02-06T05:38:04.019Z,78.90
2018-02-06T05:40:31.543Z,78.80
2018-02-06T05:42:59.429Z,78.80
2018-02-06T05:45:26.947Z,78.80
2018-02-06T05:47:54.443Z,78.90
2018-02-06T05:50:21.935Z,78.80
2018-02-06T05:52:49.903Z,78.70
2018-02-06T05:55:17.391Z,78.70
2018-02-06T05:57:45.296Z,78.90
2018-02-06T06:00:12.780Z,78.90
2018-02-06T06:02:40.279Z,78.70
2018-02-06T06:05:07.863Z,78.70
2018-02-06T06:07:35.368Z,78.90
2018-02-06T06:10:02.855Z,78.80
2018-02-06T06:12:30.356Z,78.90
2018-02-06T06:14:57.845Z,79.00
2018-02-06T06:17:25.361Z,78.90
2018-02-06T06:19:52.848Z,78.90
2018-02-06T06:22:20.356Z,78.90
2018-02-06T06:24:47.843Z,78.80
2018-02-06T06:27:15.752Z,78.90
2018-02-06T06:29:43.248Z,78.90
2018-02-06T06:32:10.864Z,79.30
2018-02-06T06:34:38.739Z,79.20
2018-02-06T06:37:06.631Z,78.90
2018-02-06T06:39:34.521Z,78.90
2018-02-06T06:42:02.028Z,78.90
2018-02-06T06:44:29.524Z,78.90
2018-02-06T06:46:57.039Z,79.10
2018-02-06T06:49:24.544Z,79.00
2018-02-06T06:51:52.034Z,79.10
2018-02-06T06:54:19.624Z,79.30
2018-02-06T06:56:47.539Z,79.00
2018-02-06T06:59:15.033Z,79.00
2018-02-06T07:01:42.531Z,78.80
2018-02-06T07:04:10.020Z,79.00
2018-02-06T07:06:37.944Z,79.00
2018-02-06T07:09:05.436Z,79.00
2018-02-06T07:11:32.944Z,79.10
2018-02-06T07:14:00.835Z,84.90
2018-02-06T07:16:28.725Z,76.10
2018-02-06T07:18:56.229Z,76.10
2018-02-06T07:21:23.730Z,77.00
2018-02-06T07:23:51.255Z,77.60
2018-02-06T07:26:18.744Z,77.50
2018-02-06T07:28:46.247Z,77.60
2018-02-06T07:31:13.736Z,78.10
2018-02-06T07:33:41.631Z,78.10
2018-02-06T07:36:09.116Z,78.10
2018-02-06T07:38:36.611Z,78.30
2018-02-06T07:41:04.103Z,78.30
2018-02-06T07:43:31.611Z,78.10
2018-02-06T07:45:59.096Z,78.20
2018-02-06T07:48:26.600Z,78.20
2018-02-06T07:50:54.105Z,78.30
2018-02-06T07:53:21.996Z,78.40
2018-02-06T07:55:49.485Z,78.40
2018-02-06T07:58:16.986Z,78.80
2018-02-06T08:00:44.476Z,78.60
2018-02-06T08:03:11.983Z,78.60
2018-02-06T08:05:39.492Z,78.70
2018-02-06T08:08:06.990Z,78.40
2018-02-06T08:10:34.484Z,78.50
2018-02-06T08:13:02.443Z,78.20
2018-02-06T08:15:29.933Z,78.20
2018-02-06T08:17:57.812Z,78.40
2018-02-06T08:20:25.331Z,78.40
2018-02-06T08:22:52.840Z,78.00
2018-02-06T08:25:20.349Z,78.10
2018-02-06T08:27:47.880Z,77.70
2018-02-06T08:30:15.390Z,77.90
2018-02-06T08:32:42.867Z,77.80
2018-02-06T08:35:10.362Z,77.90
2018-02-06T08:37:37.852Z,77.40
2018-02-06T08:40:05.363Z,77.40
2018-02-06T08:42:32.862Z,77.50
2018-02-06T08:45:00.365Z,77.90
2018-02-06T08:47:27.860Z,77.40
2018-02-06T08:49:55.768Z,76.80
2018-02-06T08:52:23.247Z,76.80
2018-02-06T08:54:50.765Z,76.90
2018-02-06T08:57:18.256Z,77.40
2018-02-06T08:59:46.156Z,76.40
2018-02-06T09:02:13.692Z,76.40
2018-02-06T09:04:41.221Z,76.40
2018-02-06T09:07:08.717Z,76.40
2018-02-06T09:09:36.211Z,76.80
2018-02-06T09:12:04.209Z,76.40
2018-02-06T09:14:31.760Z,76.40
2018-02-06T09:16:59.243Z,76.30
2018-02-06T09:19:27.148Z,76.20
2018-02-06T09:21:54.639Z,76.20
2018-02-06T09:24:22.141Z,76.50
2018-02-06T09:26:49.628Z,76.50
2018-02-06T09:29:17.523Z,75.60
2018-02-06T09:31:45.012Z,75.60
2018-02-06T09:34:12.510Z,75.50
2018-02-06T09:36:39.996Z,75.00
2018-02-06T09:39:07.500Z,74.50
2018-02-06T09:41:35.464Z,72.90
2018-02-06T09:44:02.948Z,72.90
2018-02-06T09:46:30.494Z,72.10
2018-02-06T09:48:57.954Z,71.20
2018-02-06T09:51:25.469Z,71.40
2018-02-06T09:53:52.952Z,70.60
2018-02-06T09:56:20.446Z,70.60
2018-02-06T09:58:48.060Z,71.30
2018-02-06T10:01:16.030Z,72.30
2018-02-06T10:03:43.611Z,72.30
2018-02-06T10:06:11.144Z,72.70
2018-02-06T10:08:38.619Z,74.80
2018-02-06T10:11:06.119Z,71.00
2018-02-06T10:13:33.604Z,70.80
2018-02-06T10:16:01.510Z,72.00
2018-02-06T10:18:29.044Z,72.00
2018-02-06T10:20:56.616Z,72.70
2018-02-06T10:23:24.099Z,73.00
2018-02-06T10:25:51.994Z,73.50
2018-02-06T10:28:19.481Z,73.50
2018-02-06T10:30:46.987Z,73.30
2018-02-06T10:33:14.476Z,73.40
2018-02-06T10:35:42.052Z,73.90
2018-02-06T10:38:09.532Z,73.90
2018-02-06T10:40:37.425Z,73.90
2018-02-06T10:43:04.904Z,73.90
2018-02-06T10:45:32.404Z,74.40
2018-02-06T10:47:59.888Z,74.10
2018-02-06T10:50:27.388Z,74.10
2018-02-06T10:52:55.307Z,73.00
2018-02-06T10:55:23.243Z,74.30
2018-02-06T10:57:50.728Z,74.30
2018-02-06T11:00:18.612Z,71.80
2018-02-06T11:02:46.510Z,72.30
2018-02-06T11:05:13.996Z,72.30
2018-02-06T11:07:41.500Z,73.00
2018-02-06T11:10:09.087Z,73.20
2018-02-06T11:12:36.625Z,73.10
2018-02-06T11:15:04.088Z,73.50
2018-02-06T11:17:31.591Z,73.20
2018-02-06T11:19:59.084Z,73.40
2018-02-06T11:22:27.052Z,73.60
2018-02-06T11:24:54.624Z,73.60
2018-02-06T11:27:22.200Z,73.50
2018-02-06T11:29:49.689Z,73.20
2018-02-06T11:32:17.192Z,73.10
2018-02-06T11:34:44.672Z,73.50
2018-02-06T11:37:12.317Z,73.90
2018-02-06T11:39:39.800Z,73.50
2018-02-06T11:42:07.300Z,73.50
2018-02-06T11:44:34.799Z,73.70
2018-02-06T11:47:02.745Z,67.80
2018-02-06T11:49:30.276Z,67.80
2018-02-06T11:51:57.823Z,69.40
2018-02-06T11:54:25.711Z,71.90
2018-02-06T11:56:53.659Z,72.50
2018-02-06T11:59:21.112Z,72.50
2018-02-06T12:01:48.612Z,73.40
2018-02-06T12:04:16.096Z,73.40
2018-02-06T12:06:43.994Z,73.30
2018-02-06T12:09:11.492Z,73.30
2018-02-06T12:11:38.989Z,73.50
2018-02-06T12:14:06.472Z,73.60
2018-02-06T12:16:33.973Z,73.30
2018-02-06T12:19:01.933Z,73.60
2018-02-06T12:21:29.440Z,73.60
2018-02-06T12:23:56.948Z,73.20
2018-02-06T12:26:24.432Z,73.40
2018-02-06T12:28:51.942Z,72.80
2018-02-06T12:31:19.495Z,72.50
2018-02-06T12:33:47.588Z,78.20
2018-02-06T12:36:15.555Z,66.20
2018-02-06T12:38:43.128Z,66.10
2018-02-06T12:41:11.008Z,60.40
2018-02-06T12:43:39.084Z,60.10
2018-02-06T12:46:06.568Z,60.10
2018-02-06T12:48:34.464Z,66.30
2018-02-06T12:51:01.976Z,66.30
2018-02-06T12:53:29.580Z,68.60
2018-02-06T12:55:57.061Z,69.30
2018-02-06T12:58:24.959Z,71.10
2018-02-06T13:00:52.504Z,71.10
2018-02-06T13:03:20.408Z,71.50
2018-02-06T13:05:48.776Z,71.40
2018-02-06T13:08:16.285Z,71.40
2018-02-06T13:10:43.767Z,71.60
2018-02-06T13:13:11.316Z,71.60
2018-02-06T13:15:38.835Z,71.30
2018-02-06T13:18:06.331Z,71.60
2018-02-06T13:20:34.212Z,72.50
2018-02-06T13:23:01.716Z,72.50
2018-02-06T13:25:29.201Z,72.30
2018-02-06T13:27:56.699Z,72.60
2018-02-06T13:30:24.180Z,72.80
2018-02-06T13:32:51.677Z,73.50
2018-02-06T13:35:19.560Z,73.90
2018-02-06T13:37:47.456Z,74.50
2018-02-06T13:40:14.946Z,74.50
2018-02-06T13:42:42.468Z,75.10
2018-02-06T13:45:10.448Z,71.30
2018-02-06T13:47:38.326Z,71.70
2018-02-06T13:50:05.828Z,71.60
2018-02-06T13:52:33.317Z,72.70
2018-02-06T13:55:00.836Z,73.90
2018-02-06T13:57:31.180Z,74.80
2018-02-06T13:59:59.080Z,76.10
2018-02-06T14:02:26.555Z,76.10
2018-02-06T14:04:54.063Z,76.40
2018-02-06T14:07:21.542Z,76.90
2018-02-06T14:09:49.059Z,77.90
2018-02-06T14:12:16.572Z,78.50
2018-02-06T14:14:44.072Z,78.90
2018-02-06T14:17:11.647Z,80.00
2018-02-06T14:19:39.139Z,81.40
2018-02-06T14:22:07.022Z,81.90
2018-02-06T14:24:34.923Z,82.50
2018-02-06T14:27:02.416Z,82.50
2018-02-06T14:29:29.907Z,81.90
2018-02-06T14:31:57.444Z,82.70
2018-02-06T14:34:24.944Z,82.40
2018-02-06T14:36:52.444Z,82.40
2018-02-06T14:39:20.330Z,82.20
2018-02-06T14:41:47.907Z,82.20
2018-02-06T14:44:15.872Z,82.80
2018-02-06T14:46:43.366Z,82.80
2018-02-06T14:49:10.858Z,82.40
2018-02-06T14:51:38.371Z,83.10
2018-02-06T14:54:05.951Z,83.10
2018-02-06T14:56:33.464Z,83.90
2018-02-06T14:59:00.968Z,83.80
2018-02-06T15:01:28.452Z,83.60
2018-02-06T15:03:55.951Z,83.90
2018-02-06T15:06:23.828Z,84.60
2018-02-06T15:08:51.366Z,84.70
2018-02-06T15:11:18.850Z,84.50
2018-02-06T15:13:46.331Z,82.40
2018-02-06T15:16:13.843Z,83.70
2018-02-06T15:18:41.324Z,84.00
2018-02-06T15:21:08.832Z,84.50
2018-02-06T15:23:36.306Z,84.60
2018-02-06T15:26:03.816Z,84.90
2018-02-06T15:28:31.380Z,82.40
2018-02-06T15:30:59.037Z,81.50
2018-02-06T15:33:27.139Z,83.90
2018-02-06T15:35:54.676Z,83.90
2018-02-06T15:38:22.261Z,84.80
2018-02-06T15:40:49.792Z,85.70
2018-02-06T15:43:17.266Z,86.30
2018-02-06T15:45:44.768Z,87.00
2018-02-06T15:48:12.246Z,87.40
2018-02-06T15:50:39.748Z,87.80
2018-02-06T15:53:07.232Z,88.10
2018-02-06T15:55:34.727Z,88.30
2018-02-06T15:58:02.224Z,89.10
2018-02-06T16:00:30.120Z,88.50
2018-02-06T16:02:57.994Z,88.80
2018-02-06T16:05:25.892Z,89.00
2018-02-06T16:07:53.456Z,89.10
2018-02-06T16:10:20.995Z,89.00
2018-02-06T16:12:48.692Z,89.20
2018-02-06T16:15:16.579Z,90.00
2018-02-06T16:17:44.456Z,89.10
2018-02-06T16:20:12.346Z,89.40
2018-02-06T16:22:39.892Z,89.40
2018-02-06T16:25:07.793Z,88.50
2018-02-06T16:27:35.420Z,88.50
2018-02-06T16:30:02.919Z,88.90
2018-02-06T16:32:30.817Z,89.00
2018-02-06T16:34:58.703Z,89.30
2018-02-06T16:37:26.240Z,89.30
2018-02-06T16:39:53.731Z,89.30
2018-02-06T16:42:21.652Z,89.30
2018-02-06T16:44:49.139Z,89.30
2018-02-06T16:47:16.672Z,89.30
2018-02-06T16:49:44.158Z,89.50
2018-02-06T16:52:11.666Z,89.30
2018-02-06T16:54:39.148Z,89.50
2018-02-06T16:57:06.813Z,89.60
2018-02-06T16:59:34.731Z,89.70
2018-02-06T17:02:02.301Z,90.00
2018-02-06T17:04:29.783Z,90.10
2018-02-06T17:06:57.288Z,89.50
2018-02-06T17:09:24.759Z,89.80
2018-02-06T17:11:52.359Z,89.90
2018-02-06T17:14:19.840Z,88.70
2018-02-06T17:16:47.726Z,89.30
2018-02-06T17:19:15.599Z,89.80
2018-02-06T17:21:43.562Z,90.00
2018-02-06T17:24:11.144Z,90.00
2018-02-06T17:26:38.648Z,90.70
2018-02-06T17:29:06.135Z,90.50
2018-02-06T17:31:33.659Z,90.80
2018-02-06T17:34:01.227Z,90.70
2018-02-06T17:36:28.805Z,90.60
2018-02-06T17:38:56.309Z,90.50
2018-02-06T17:41:23.808Z,91.30
2018-02-06T17:43:51.287Z,91.40
2018-02-06T17:46:18.906Z,91.20
2018-02-06T17:48:46.382Z,90.70
2018-02-06T17:51:13.883Z,91.00
2018-02-06T17:53:41.367Z,90.80
2018-02-06T17:56:08.869Z,90.80
2018-02-06T17:58:36.473Z,90.80
2018-02-06T18:01:03.946Z,90.40
2018-02-06T18:03:31.444Z,90.10
2018-02-06T18:05:58.924Z,90.40
2018-02-06T18:08:26.441Z,90.40
2018-02-06T18:10:54.310Z,90.20
2018-02-06T18:13:22.291Z,90.20
2018-02-06T18:15:50.178Z,90.40
2018-02-06T18:18:17.680Z,90.40
2018-02-06T18:20:45.160Z,90.60
2018-02-06T18:23:12.655Z,90.90
2018-02-06T18:25:40.161Z,90.80
2018-02-06T18:28:08.047Z,90.30
2018-02-06T18:30:36.016Z,90.50
2018-02-06T18:33:03.903Z,90.60
2018-02-06T18:35:31.787Z,90.40
2018-02-06T18:37:59.684Z,90.40
2018-02-06T18:40:27.203Z,90.40
2018-02-06T18:42:54.718Z,90.40
2018-02-06T18:45:22.204Z,90.30
2018-02-06T18:47:49.717Z,90.40
2018-02-06T18:50:17.218Z,90.60
2018-02-06T18:52:44.744Z,90.70
2018-02-06T18:55:12.234Z,91.20
2018-02-06T18:57:39.726Z,90.90
2018-02-06T19:00:07.618Z,91.20
2018-02-06T19:02:35.169Z,91.20
2018-02-06T19:05:03.074Z,91.20
2018-02-06T19:07:30.567Z,91.10
2018-02-06T19:09:58.049Z,91.20
2018-02-06T19:12:25.548Z,91.20
2018-02-06T19:14:53.028Z,91.30
2018-02-06T19:17:20.600Z,91.20
2018-02-06T19:19:48.200Z,91.30
2018-02-06T19:22:15.748Z,91.20
2018-02-06T19:24:43.345Z,90.90
2018-02-06T19:27:10.860Z,91.00
2018-02-06T19:29:38.373Z,90.90
2018-02-06T19:32:06.339Z,90.70
2018-02-06T19:34:33.943Z,90.70
2018-02-06T19:37:01.476Z,90.80
2018-02-06T19:39:29.002Z,90.80
2018-02-06T19:41:56.511Z,91.20
2018-02-06T19:44:24.105Z,91.00
2018-02-06T19:46:51.626Z,90.90
2018-02-06T19:49:19.147Z,83.30
2018-02-06T19:51:47.128Z,82.70
2018-02-06T19:54:15.142Z,84.20
2018-02-06T19:56:42.659Z,84.20
2018-02-06T19:59:10.202Z,85.70
2018-02-06T20:01:37.727Z,86.30
2018-02-06T20:04:05.737Z,87.50
2018-02-06T20:06:33.276Z,87.50
2018-02-06T20:09:00.979Z,88.00
2018-02-06T20:11:28.514Z,88.60
2018-02-06T20:13:56.024Z,88.80
2018-02-06T20:16:23.563Z,88.90
2018-02-06T20:18:51.061Z,88.90
2018-02-06T20:21:18.572Z,88.90
2018-02-06T20:23:46.076Z,89.30
2018-02-06T20:26:13.591Z,89.40
2018-02-06T20:28:41.087Z,89.20
2018-02-06T20:31:08.568Z,89.30
2018-02-06T20:33:36.064Z,89.80
2018-02-06T20:36:03.935Z,89.60
2018-02-06T20:38:31.511Z,89.60
2018-02-06T20:40:59.082Z,89.50
2018-02-06T20:43:26.588Z,89.60
2018-02-06T20:45:54.118Z,89.90
2018-02-06T20:48:21.600Z,90.00
2018-02-06T20:50:49.259Z,89.60
2018-02-06T20:53:16.741Z,89.60
2018-02-06T20:55:44.298Z,89.80
2018-02-06T20:58:11.788Z,89.90
2018-02-06T21:00:39.796Z,89.90
2018-02-06T21:03:07.283Z,89.90
2018-02-06T21:05:34.972Z,89.90
2018-02-06T21:08:02.450Z,90.20
2018-02-06T21:10:29.956Z,90.50
2018-02-06T21:12:57.472Z,90.50
2018-02-06T21:15:25.038Z,90.60
2018-02-06T21:17:52.565Z,90.80
2018-02-06T21:20:20.143Z,90.90
2018-02-06T21:22:48.031Z,91.00
2018-02-06T21:25:15.980Z,91.20
2018-02-06T21:27:43.469Z,91.20
2018-02-06T21:30:11.074Z,91.20
2018-02-06T21:32:38.582Z,91.20
2018-02-06T21:35:06.084Z,91.20
2018-02-06T21:37:33.984Z,91.30
2018-02-06T21:40:02.117Z,91.20
2018-02-06T21:42:29.646Z,91.20
2018-02-06T21:44:57.184Z,91.00
2018-02-06T21:47:24.659Z,90.80
2018-02-06T21:49:52.267Z,90.80
2018-02-06T21:52:19.792Z,90.90
2018-02-06T21:54:47.269Z,91.20
2018-02-06T21:57:14.855Z,91.10
2018-02-06T21:59:42.331Z,91.10
2018-02-06T22:02:10.228Z,91.30
2018-02-06T22:04:37.716Z,91.30
2018-02-06T22:07:05.223Z,91.20
2018-02-06T22:09:32.703Z,91.20
2018-02-06T22:12:00.205Z,91.20
2018-02-06T22:14:28.080Z,91.20
2018-02-06T22:16:55.970Z,91.20
2018-02-06T22:19:23.457Z,91.20
2018-02-06T22:21:50.954Z,91.20
2018-02-06T22:24:18.460Z,90.90
2018-02-06T22:26:46.355Z,90.90
2018-02-06T22:29:14.252Z,90.70
2018-02-06T22:31:41.741Z,90.70
2018-02-06T22:34:09.244Z,91.00
2018-02-06T22:36:36.725Z,90.80
2018-02-06T22:39:04.219Z,90.70
2018-02-06T22:41:32.095Z,90.90
2018-02-06T22:44:00.093Z,91.20
2018-02-06T22:46:28.034Z,91.00
2018-02-06T22:48:55.537Z,91.00
2018-02-06T22:51:23.025Z,91.30
2018-02-06T22:53:50.523Z,91.50
2018-02-06T22:56:17.998Z,91.50
2018-02-06T22:58:45.500Z,91.30
2018-02-06T23:01:13.380Z,91.30
2018-02-06T23:03:41.272Z,91.40
2018-02-06T23:06:09.152Z,91.50
2018-02-06T23:08:37.036Z,91.20
2018-02-06T23:11:04.510Z,91.20
2018-02-06T23:13:32.057Z,91.00
2018-02-06T23:15:59.929Z,91.20
2018-02-06T23:18:27.408Z,91.20
2018-02-06T23:20:55.304Z,91.30
2018-02-06T23:23:23.186Z,91.30
2018-02-06T23:25:51.153Z,91.20
2018-02-06T23:28:19.031Z,91.10
2018-02-06T23:30:46.930Z,90.80
2018-02-06T23:33:14.412Z,90.80
2018-02-06T23:35:41.914Z,91.00
2018-02-06T23:38:09.387Z,90.70
2018-02-06T23:40:36.887Z,90.70
2018-02-06T23:43:04.455Z,90.40
2018-02-06T23:45:31.964Z,90.70
2018-02-06T23:47:59.442Z,91.00
2018-02-06T23:50:26.945Z,90.90
2018-02-06T23:52:54.427Z,90.90
2018-02-06T23:55:21.933Z,90.70
2018-02-06T23:57:49.407Z,90.70
